Harpers Ferry, IA

8:31 AM CDT on May 05, 2015 (GMT -0500)
Prairie du Chien | | Change Station
CLOSE
Current Station
Personal Weather Station
Location: Prairie Du Chien, WI
Elevation: 681 ft
Nearby Weather Stations

Elev 681 ft 43.04 °N, 91.14 °W | Updated 9 seconds ago

Overcast
Overcast
53.8 °F
Feels Like 53.8 °F
N
0.0
Wind Variable Wind from North
Gusts 3.1 mph

Today
High -- | Low -- °F
--% Chance of Precip.
Yesterday
High -- | Low -- °F
Precip. -- in
5:53 AM 8:10 PM
Full, 98% visible
Pressure 30.21 in
Visibility 10.0 miles
Clouds Overcast 1900 ft
Dew Point 49 °F
Humidity 84%
Rainfall 0.07 in
Snow Depth Not available.
UV 0.0 out of 12
Pollen 1.60 out of 12
Air Quality Not available.
Flu Activity Local Activity
METAR KPDC 051315Z AUTO 07007KT 10SM OVC019 12/09 A3021 RMK AO2 T01150087

More Conditions Fewer Conditions

Pressure 30.21 in
Visibility 10.0 miles
Clouds Overcast 1900 ft
Dew Point 49 °F
Humidity 84%
Rainfall 0.07 in
Snow Depth Not available.
UV 0.0 out of 12
Pollen 1.60 out of 12
Air Quality Not available.
Flu Activity Local Activity
METAR KPDC 051315Z AUTO 07007KT 10SM OVC019 12/09 A3021 RMK AO2 T01150087

More Conditions Fewer Conditions

Nepal has a long way to go to dig out and rebuild from a devastating earthquake. We have teamed up with several charities and organizations to make contributing to the relief effort as easy as possible.
How you can help: Portlight Strategies | Red Cross

10-Day Weather Forecast

Almanac

Astronomy

May. 05, 2015 Rise Set
Actual Time
Civil Twilight
Nautical Twilight
Astronomical Twilight
Moon
Length of Visible Light
Length of Day
Tomorrow will be .
, % of the Moon is Illuminated

Today's Extremes

State Highs State Lows

Community

WunderPhotos

Upload Photos

1,818,884 photos uploaded!

WunderBlogs® & News

Nearby

Air Quality

  Air Quality AQ Index Pollutant
Not available.

Snow Depth

Station Depth Elevation

Earthquake Activity

City Distance Mag. Time & Date
Minimum magnitude displayed is 2.5.

Coastal Water Temperatures

Place Temperature

Stations

Nearby Weather Stations

Station Location Temp. Windchill Dew Point Humidity Wind Precip. Elev Updated Type